LKTB

Brno-Tuřany Airport

Brno, Czech Republic
METAR LKTB 250230Z VRB02KT CAVOK 18/10 Q1018 NOSIG
Observed Flight Rules
May-25 @ 02:30 UTC (27 minutes ago) Visual Flight Rules
Wind Visibility Clouds
Variable at 2 knots 10,000+ meters
  • Clear skies
Temperatures Readings
Current 18°C / 64°F
Dewpoint 10°C / 50°F
Humidity 60%
Altimeter 30.06" Hg
Pressure 1018 hPa
Elevation 246
METAR LKTB 250230Z VRB02KT CAVOK 18/10 Q1018 NOSIG
Observed Flight Rules
May-25 @ 02:30 UTC
(27 minutes ago)
VFR
Wind Visibility
Variable at 2 knots 10,000+ meters
Clouds
  • Clear skies
Temperature Dewpoint
18°C / 64°F 10°C / 50°F
Humidity Altimeter Pressure
60% 30.06" Hg 1018 hPa